Time;durP1;ratioP1;P1;durP2;ratioP2;P2;SDS_P1;SDS_P2;PMS_P1;PMS_P2;Temp;Humidity;BMP_temperature;BMP_pressure;BME280_temperature;BME280_humidity;BME280_pressure;Samples;Min_cycle;Max_cycle;Signal;HPM_P1;HPM_P2
2021/01/15 00:01:47;;;;;;;12.68;8.77;;;0.80;85.20;;;;;;4951940;29;20063;-81
2021/01/15 00:04:13;;;;;;;12.15;9.00;;;0.80;85.40;;;;;;4937917;29;20048;-81
2021/01/15 00:06:39;;;;;;;12.68;8.98;;;0.70;85.40;;;;;;4936809;29;20044;-81
2021/01/15 00:09:05;;;;;;;13.18;8.75;;;0.80;86.10;;;;;;4952412;29;20047;-81
2021/01/15 00:11:32;;;;;;;13.18;9.38;;;0.80;85.20;;;;;;4951731;29;20125;-79
2021/01/15 00:14:00;;;;;;;12.35;9.52;;;0.80;85.10;;;;;;4937705;29;20063;-81
2021/01/15 00:16:31;;;;;;;12.57;9.20;;;0.80;85.30;;;;;;4937769;29;20179;-81
2021/01/15 00:18:59;;;;;;;12.68;8.48;;;0.90;84.60;;;;;;4964339;28;20114;-81
2021/01/15 00:21:35;;;;;;;11.50;8.82;;;0.90;84.00;;;;;;4957035;28;20035;-81
2021/01/15 00:24:03;;;;;;;12.48;9.55;;;1.00;83.70;;;;;;4956547;29;20079;-81
2021/01/15 00:26:30;;;;;;;13.48;9.88;;;1.00;84.00;;;;;;4956165;29;20399;-79
2021/01/15 00:28:56;;;;;;;13.65;9.30;;;1.00;83.90;;;;;;4956169;29;20054;-81
2021/01/15 00:31:33;;;;;;;15.30;9.95;;;1.10;83.90;;;;;;4956434;29;20055;-81
2021/01/15 00:33:59;;;;;;;14.45;9.82;;;1.10;83.70;;;;;;4955491;29;20055;-81
2021/01/15 00:36:25;;;;;;;15.25;10.38;;;1.20;83.90;;;;;;4956487;29;20047;-81
2021/01/15 00:38:51;;;;;;;13.38;10.13;;;1.20;83.80;;;;;;4970158;28;20106;-82
2021/01/15 00:41:17;;;;;;;14.23;9.40;;;1.20;83.60;;;;;;4955120;29;20044;-81
2021/01/15 00:43:43;;;;;;;13.52;10.88;;;1.20;83.40;;;;;;4970438;28;20054;-81
2021/01/15 00:46:31;;;;;;;13.57;10.13;;;1.20;83.20;;;;;;4956164;29;20071;-81
2021/01/15 00:49:05;;;;;;;13.20;9.73;;;1.20;83.10;;;;;;4955579;28;20122;-81
2021/01/15 00:51:32;;;;;;;13.90;10.27;;;1.30;83.20;;;;;;4955827;28;20051;-79
2021/01/15 00:53:59;;;;;;;12.82;9.38;;;1.30;83.20;;;;;;4956006;28;20551;-81
2021/01/15 00:56:25;;;;;;;12.10;9.27;;;1.30;82.90;;;;;;4956006;28;20137;-81
2021/01/15 00:58:52;;;;;;;14.30;10.05;;;1.30;82.80;;;;;;4953817;29;20735;-80
2021/01/15 01:01:20;;;;;;;11.23;9.10;;;1.30;82.60;;;;;;4956037;28;20054;-81
2021/01/15 01:03:47;;;;;;;12.25;9.52;;;1.30;82.50;;;;;;4954625;28;20475;-81
2021/01/15 01:06:18;;;;;;;12.18;9.35;;;1.40;81.70;;;;;;4955852;29;20051;-81
2021/01/15 01:08:45;;;;;;;11.65;8.93;;;1.50;81.40;;;;;;4970059;28;20150;-81
2021/01/15 01:11:22;;;;;;;12.43;9.27;;;1.50;81.40;;;;;;4955811;29;20061;-81
2021/01/15 01:13:50;;;;;;;12.73;9.27;;;1.50;80.90;;;;;;4969665;28;20055;-81
2021/01/15 01:16:17;;;;;;;9.55;6.95;;;1.50;80.70;;;;;;4955704;29;20047;-81
2021/01/15 01:18:44;;;;;;;11.48;8.07;;;1.50;80.40;;;;;;4965645;28;20046;-81
2021/01/15 01:21:11;;;;;;;10.35;8.20;;;1.50;80.00;;;;;;4989826;28;20081;-80
2021/01/15 01:23:37;;;;;;;12.77;9.68;;;1.50;81.10;;;;;;4974059;28;20039;-79
2021/01/15 01:26:03;;;;;;;13.30;9.57;;;1.60;80.70;;;;;;4974890;28;20085;-81
2021/01/15 01:28:29;;;;;;;14.15;10.35;;;1.60;80.90;;;;;;4974905;28;20066;-81
2021/01/15 01:30:54;;;;;;;13.38;10.45;;;1.60;81.20;;;;;;4973835;28;20062;-82
2021/01/15 01:33:20;;;;;;;13.45;10.57;;;1.50;81.10;;;;;;4974810;28;20047;-81
2021/01/15 01:35:47;;;;;;;15.07;10.88;;;1.50;81.50;;;;;;4973805;28;20047;-81
2021/01/15 01:38:12;;;;;;;14.00;10.70;;;1.50;81.40;;;;;;4962304;28;20617;-80
2021/01/15 01:40:39;;;;;;;13.63;10.73;;;1.50;81.80;;;;;;4968796;28;20047;-80
2021/01/15 01:43:05;;;;;;;15.18;10.85;;;1.40;81.70;;;;;;4955308;28;20050;-81
2021/01/15 01:45:31;;;;;;;17.02;10.63;;;1.40;82.10;;;;;;4969954;28;20043;-80
2021/01/15 01:47:58;;;;;;;13.30;10.10;;;1.50;81.60;;;;;;4954398;29;20043;-81
2021/01/15 01:50:25;;;;;;;13.13;9.75;;;1.50;82.20;;;;;;4955162;28;20389;-81
2021/01/15 01:52:51;;;;;;;13.40;10.07;;;1.50;81.70;;;;;;4954339;28;20043;-80
2021/01/15 01:55:19;;;;;;;13.48;10.32;;;1.50;81.70;;;;;;4954828;28;20118;-81
2021/01/15 01:57:46;;;;;;;16.63;10.63;;;1.50;81.70;;;;;;4953913;28;20070;-81
2021/01/15 02:00:13;;;;;;;13.23;10.57;;;1.50;82.00;;;;;;4954946;28;20735;-81
2021/01/15 02:02:39;;;;;;;13.85;10.88;;;1.50;82.50;;;;;;4954130;28;20054;-79
2021/01/15 02:05:06;;;;;;;14.32;10.82;;;1.40;82.80;;;;;;4969889;28;20399;-81
2021/01/15 02:07:32;;;;;;;12.88;10.35;;;1.40;83.20;;;;;;4954786;28;20047;-81
2021/01/15 02:10:19;;;;;;;15.82;10.88;;;1.40;83.60;;;;;;4952750;29;20248;-81
2021/01/15 02:13:33;;;;;;;13.35;9.88;;;1.40;83.70;;;;;;4953873;28;20047;-80
2021/01/15 02:16:09;;;;;;;14.55;10.55;;;1.40;83.40;;;;;;4967796;28;20039;-81
2021/01/15 02:19:14;;;;;;;13.57;10.80;;;1.50;83.10;;;;;;4963865;28;20566;-81
2021/01/15 02:22:17;;;;;;;15.13;10.85;;;1.40;83.10;;;;;;4971873;28;20051;-79
2021/01/15 02:25:23;;;;;;;14.98;10.65;;;1.40;83.70;;;;;;4973025;28;20050;-80
2021/01/15 02:28:17;;;;;;;15.73;11.23;;;1.40;83.30;;;;;;4951971;28;20051;-81
2021/01/15 02:31:05;;;;;;;16.33;11.50;;;1.40;83.50;;;;;;4972885;28;20541;-80
2021/01/15 02:34:19;;;;;;;14.57;11.70;;;1.40;83.50;;;;;;4972146;28;20133;-81
2021/01/15 02:37:07;;;;;;;15.65;11.15;;;1.40;83.30;;;;;;4950961;29;20126;-80
2021/01/15 02:39:53;;;;;;;14.75;10.32;;;1.40;83.00;;;;;;4951963;29;20057;-80
2021/01/15 02:42:23;;;;;;;14.25;11.05;;;1.40;83.20;;;;;;4952010;29;20066;-81
2021/01/15 02:44:50;;;;;;;14.23;10.68;;;1.30;83.30;;;;;;4951059;29;20614;-80
2021/01/15 02:47:23;;;;;;;15.02;11.15;;;1.40;83.10;;;;;;4946985;29;20098;-80
2021/01/15 02:49:55;;;;;;;14.02;10.00;;;1.40;83.00;;;;;;4931394;29;20044;-81
2021/01/15 02:52:21;;;;;;;15.77;10.95;;;1.30;83.40;;;;;;4932494;29;20139;-81
2021/01/15 02:54:47;;;;;;;14.55;10.02;;;1.40;83.60;;;;;;4931572;29;20579;-81
2021/01/15 02:57:13;;;;;;;14.13;10.55;;;1.30;83.40;;;;;;4932520;29;20056;-81
2021/01/15 02:59:38;;;;;;;15.32;10.60;;;1.40;83.30;;;;;;4932474;29;20480;-81
2021/01/15 03:02:20;;;;;;;13.73;10.52;;;1.40;83.40;;;;;;4931540;29;20459;-81
2021/01/15 03:05:05;;;;;;;13.70;9.75;;;1.40;83.30;;;;;;4931677;29;20052;-80
2021/01/15 03:07:31;;;;;;;14.27;10.15;;;1.40;83.80;;;;;;4942910;29;20142;-81
2021/01/15 03:10:03;;;;;;;14.70;10.60;;;1.30;84.10;;;;;;4952970;29;20051;-80
2021/01/15 03:12:30;;;;;;;14.30;10.43;;;1.30;84.30;;;;;;4951935;29;20062;-81
2021/01/15 03:14:57;;;;;;;15.35;10.65;;;1.40;83.90;;;;;;4952979;28;20106;-81
2021/01/15 03:17:28;;;;;;;13.93;11.00;;;1.40;84.00;;;;;;4954115;28;20114;-81
2021/01/15 03:19:55;;;;;;;13.60;9.90;;;1.30;84.00;;;;;;4972148;28;20078;-80
2021/01/15 03:22:22;;;;;;;12.77;9.50;;;1.30;84.10;;;;;;4972970;28;20043;-81
2021/01/15 03:24:56;;;;;;;15.65;10.98;;;1.40;83.70;;;;;;4972068;28;20047;-81
2021/01/15 03:27:24;;;;;;;15.25;10.85;;;1.40;83.70;;;;;;4975938;28;20050;-81
2021/01/15 03:29:50;;;;;;;14.77;10.65;;;1.40;84.00;;;;;;4976165;28;20050;-80
2021/01/15 03:32:16;;;;;;;14.82;10.40;;;1.40;84.10;;;;;;4976969;28;20047;-81
2021/01/15 03:34:42;;;;;;;13.63;10.68;;;1.40;84.10;;;;;;4976585;28;20689;-79
2021/01/15 03:37:08;;;;;;;14.05;10.38;;;1.40;84.20;;;;;;4975146;28;20042;-81
2021/01/15 03:39:34;;;;;;;14.90;11.10;;;1.30;84.30;;;;;;4975848;28;20050;-81
2021/01/15 03:42:01;;;;;;;15.13;11.27;;;1.30;84.50;;;;;;4961612;28;20130;-81
2021/01/15 03:44:27;;;;;;;15.38;10.60;;;1.40;84.50;;;;;;4956751;29;20570;-81
2021/01/15 03:46:56;;;;;;;17.27;11.48;;;1.30;84.50;;;;;;4956502;29;20086;-81
2021/01/15 03:49:23;;;;;;;14.65;10.82;;;1.30;84.50;;;;;;4972345;28;20559;-81
2021/01/15 03:51:49;;;;;;;15.68;10.70;;;1.30;84.80;;;;;;4955184;29;20054;-80
2021/01/15 03:54:15;;;;;;;15.93;11.63;;;1.30;84.90;;;;;;4957267;29;20047;-81
2021/01/15 03:56:41;;;;;;;15.20;10.95;;;1.30;85.10;;;;;;4957115;29;20122;-81
2021/01/15 03:59:07;;;;;;;13.65;10.52;;;1.30;85.10;;;;;;4956237;29;20634;-81
2021/01/15 04:01:35;;;;;;;15.82;11.27;;;1.30;85.20;;;;;;4956409;29;20050;-81
2021/01/15 04:04:00;;;;;;;15.07;10.73;;;1.30;85.30;;;;;;4954769;29;20046;-81
2021/01/15 04:06:26;;;;;;;15.50;10.82;;;1.30;85.40;;;;;;4957104;29;20051;-81
2021/01/15 04:08:52;;;;;;;15.93;11.35;;;1.30;85.70;;;;;;4956059;29;20506;-80
2021/01/15 04:11:21;;;;;;;13.18;9.93;;;1.30;85.70;;;;;;4956966;29;20079;-80
2021/01/15 04:13:47;;;;;;;15.77;10.93;;;1.30;85.90;;;;;;4955743;29;20051;-79
2021/01/15 04:16:14;;;;;;;17.45;11.45;;;1.30;85.90;;;;;;4956464;29;20511;-81
2021/01/15 04:18:40;;;;;;;16.25;10.82;;;1.30;85.90;;;;;;4967130;28;20047;-81
2021/01/15 04:21:07;;;;;;;13.50;10.57;;;1.20;85.90;;;;;;4965099;28;20047;-81
2021/01/15 04:23:34;;;;;;;14.93;10.80;;;1.30;85.90;;;;;;4955404;29;20052;-81
2021/01/15 04:26:00;;;;;;;14.45;10.52;;;1.30;86.10;;;;;;4955903;28;20043;-81
2021/01/15 04:28:26;;;;;;;15.55;11.00;;;1.30;86.20;;;;;;4955417;29;20446;-81
2021/01/15 04:30:52;;;;;;;17.20;11.88;;;1.20;86.30;;;;;;4970752;28;20047;-80
2021/01/15 04:33:18;;;;;;;17.88;13.27;;;1.20;86.40;;;;;;4971134;28;20687;-81
2021/01/15 04:35:43;;;;;;;15.93;11.88;;;1.20;86.30;;;;;;4956058;29;20047;-81
2021/01/15 04:38:11;;;;;;;14.70;10.93;;;1.20;86.30;;;;;;4953334;28;20499;-81
2021/01/15 04:40:37;;;;;;;16.42;10.80;;;1.30;86.20;;;;;;4967799;28;20043;-81
2021/01/15 04:43:04;;;;;;;14.27;10.75;;;1.30;86.10;;;;;;4936377;29;20495;-81
2021/01/15 04:45:31;;;;;;;13.95;10.25;;;1.30;86.10;;;;;;4937312;29;20134;-81
2021/01/15 04:47:57;;;;;;;14.63;10.43;;;1.30;86.20;;;;;;4936263;29;20047;-81
2021/01/15 04:50:24;;;;;;;14.70;10.68;;;1.30;86.20;;;;;;4920185;29;20468;-81
2021/01/15 04:52:51;;;;;;;15.45;10.40;;;1.30;86.30;;;;;;4936382;29;20048;-79
2021/01/15 04:55:23;;;;;;;13.32;10.05;;;1.30;86.50;;;;;;4936900;29;20039;-81
2021/01/15 04:57:51;;;;;;;19.15;10.35;;;1.40;86.30;;;;;;4936900;29;20054;-80
2021/01/15 05:00:20;;;;;;;15.63;10.43;;;1.40;86.40;;;;;;4958973;28;20044;-81
2021/01/15 05:02:47;;;;;;;16.05;10.38;;;1.40;86.60;;;;;;4970704;28;20134;-81
2021/01/15 05:05:21;;;;;;;13.80;9.88;;;1.40;86.50;;;;;;4954050;29;20100;-81
2021/01/15 05:08:13;;;;;;;13.95;9.80;;;1.40;86.60;;;;;;4970907;28;20042;-81
2021/01/15 05:10:48;;;;;;;14.55;9.82;;;1.40;86.70;;;;;;4954811;29;20464;-81
2021/01/15 05:13:15;;;;;;;;;;;1.40;87.00;;;;;;4955265;28;20067;-81
2021/01/15 05:15:44;;;;;;;14.20;9.15;;;1.30;87.10;;;;;;4955687;28;19922;-81
2021/01/15 05:18:11;;;;;;;15.27;10.88;;;1.30;87.30;;;;;;4976507;28;20046;-81
2021/01/15 05:20:37;;;;;;;15.18;10.80;;;1.30;87.40;;;;;;4974835;28;20074;-81
2021/01/15 05:23:05;;;;;;;15.82;10.80;;;1.30;87.60;;;;;;4974004;28;20105;-81
2021/01/15 05:25:31;;;;;;;14.20;9.45;;;1.30;87.80;;;;;;4973639;28;20390;-81
2021/01/15 05:27:57;;;;;;;15.35;10.75;;;1.30;87.90;;;;;;4974054;28;20042;-81
2021/01/15 05:30:27;;;;;;;13.55;10.27;;;1.30;88.00;;;;;;4966415;28;20057;-81
2021/01/15 05:32:55;;;;;;;13.88;10.68;;;1.30;88.10;;;;;;4954779;28;20491;-79
2021/01/15 05:35:51;;;;;;;16.23;11.10;;;1.30;88.30;;;;;;4955380;28;20042;-81
2021/01/15 05:38:18;;;;;;;17.13;10.95;;;1.30;88.40;;;;;;4954602;28;20039;-81
2021/01/15 05:40:49;;;;;;;17.17;10.82;;;1.30;88.50;;;;;;4955293;28;20133;-81
2021/01/15 05:43:19;;;;;;;15.88;11.45;;;1.30;88.50;;;;;;4953329;29;20098;-81
2021/01/15 05:46:03;;;;;;;14.00;10.60;;;1.30;88.60;;;;;;4954109;29;20047;-81
2021/01/15 05:48:29;;;;;;;15.23;10.70;;;1.30;88.70;;;;;;4954765;28;20491;-81
2021/01/15 05:50:54;;;;;;;15.80;10.82;;;1.30;88.80;;;;;;4954596;29;20075;-79
2021/01/15 05:53:21;;;;;;;14.85;10.70;;;1.30;88.80;;;;;;4954794;29;20039;-81
2021/01/15 05:55:55;;;;;;;16.00;11.30;;;1.30;88.90;;;;;;4969774;28;20051;-81
2021/01/15 05:58:20;;;;;;;14.32;10.55;;;1.30;89.00;;;;;;4954941;28;20054;-81
2021/01/15 06:00:51;;;;;;;14.35;10.45;;;1.30;89.10;;;;;;4954742;29;20043;-81
2021/01/15 06:03:22;;;;;;;16.48;10.85;;;1.30;88.90;;;;;;4953850;28;20869;-81
2021/01/15 06:05:52;;;;;;;19.30;11.60;;;1.30;88.90;;;;;;4955038;28;20070;-81
2021/01/15 06:08:18;;;;;;;15.75;10.77;;;1.30;88.90;;;;;;4953943;28;20157;-81
2021/01/15 06:10:48;;;;;;;14.93;10.95;;;1.40;89.40;;;;;;4954750;28;20070;-81
2021/01/15 06:13:39;;;;;;;17.95;11.57;;;1.40;88.30;;;;;;4953765;28;20558;-81
2021/01/15 06:16:05;;;;;;;14.55;10.23;;;1.40;88.40;;;;;;4952612;29;20043;-82
2021/01/15 06:18:32;;;;;;;17.92;10.82;;;1.30;88.60;;;;;;4964056;28;20129;-81
2021/01/15 06:21:12;;;;;;;15.05;9.80;;;1.30;88.60;;;;;;4973370;28;20541;-80
2021/01/15 06:23:42;;;;;;;17.30;10.57;;;1.30;88.60;;;;;;4973932;28;20126;-82
2021/01/15 06:26:10;;;;;;;15.60;10.85;;;1.30;88.70;;;;;;4971568;28;20406;-82
2021/01/15 06:28:38;;;;;;;14.75;10.98;;;1.30;88.80;;;;;;4973598;28;20114;-82
2021/01/15 06:31:08;;;;;;;15.82;10.20;;;1.30;88.90;;;;;;4957148;28;20050;-82
2021/01/15 06:33:35;;;;;;;17.10;11.27;;;1.30;89.00;;;;;;4954513;28;20047;-83
2021/01/15 06:36:04;;;;;;;14.13;10.93;;;1.30;89.00;;;;;;4953427;28;20134;-81
2021/01/15 06:38:31;;;;;;;15.52;10.52;;;1.30;89.10;;;;;;4954252;28;20047;-82
2021/01/15 06:40:58;;;;;;;14.85;11.27;;;1.40;89.40;;;;;;4968953;28;20079;-81
2021/01/15 06:43:28;;;;;;;16.35;11.80;;;1.30;89.70;;;;;;4952593;29;20043;-82
2021/01/15 06:46:02;;;;;;;17.15;11.77;;;1.30;89.80;;;;;;4954081;28;20042;-81
2021/01/15 06:48:35;;;;;;;14.98;10.07;;;1.30;90.00;;;;;;4953969;28;20439;-82
2021/01/15 06:51:01;;;;;;;13.57;8.75;;;1.40;90.30;;;;;;4953522;28;20039;-80
2021/01/15 06:53:32;;;;;;;14.25;9.82;;;1.40;90.60;;;;;;4954085;28;20063;-82
2021/01/15 06:56:04;;;;;;;14.55;10.02;;;1.40;90.80;;;;;;4953950;28;20065;-81
2021/01/15 06:58:43;;;;;;;15.52;10.30;;;1.30;90.90;;;;;;4968846;28;20063;-83
2021/01/15 07:01:16;;;;;;;19.27;10.77;;;1.30;91.10;;;;;;4952223;28;20039;-84
2021/01/15 07:03:51;;;;;;;15.63;11.15;;;1.30;91.20;;;;;;4953356;28;20050;-82
2021/01/15 07:06:30;;;;;;;18.83;11.27;;;1.20;91.20;;;;;;4968104;28;20039;-82
2021/01/15 07:08:57;;;;;;;14.57;10.80;;;1.20;91.30;;;;;;4952796;29;20051;-82
2021/01/15 07:11:25;;;;;;;18.10;11.05;;;1.20;91.30;;;;;;4953364;28;20511;-82
2021/01/15 07:13:56;;;;;;;15.27;10.50;;;1.20;91.40;;;;;;4954309;28;20059;-83
2021/01/15 07:16:33;;;;;;;16.75;10.52;;;1.20;91.50;;;;;;4953103;28;20023;-82
2021/01/15 07:19:04;;;;;;;14.55;10.50;;;1.20;91.50;;;;;;4967422;28;20050;-82
2021/01/15 07:21:37;;;;;;;18.17;11.73;;;1.20;91.60;;;;;;4973363;28;20042;-82
2021/01/15 07:24:09;;;;;;;20.17;13.82;;;1.20;91.60;;;;;;4972568;28;20057;-81
2021/01/15 07:26:41;;;;;;;23.90;17.88;;;1.30;91.60;;;;;;4971839;28;20502;-82
2021/01/15 07:29:15;;;;;;;21.60;16.30;;;1.30;91.70;;;;;;4969433;28;20414;-82
2021/01/15 07:31:45;;;;;;;15.77;12.68;;;1.30;91.70;;;;;;4953994;28;20100;-82
2021/01/15 07:34:17;;;;;;;18.50;13.93;;;1.30;91.70;;;;;;4952797;28;20043;-82
2021/01/15 07:36:44;;;;;;;16.75;12.57;;;1.20;91.70;;;;;;4953061;29;20380;-83
2021/01/15 07:39:14;;;;;;;16.83;11.45;;;1.20;91.70;;;;;;4953992;28;20070;-82
2021/01/15 07:41:51;;;;;;;15.68;10.90;;;1.20;91.80;;;;;;4954688;28;20050;-84
2021/01/15 07:44:27;;;;;;;17.25;12.20;;;1.20;91.80;;;;;;4955176;29;20090;-82
2021/01/15 07:46:55;;;;;;;17.52;11.48;;;1.20;91.80;;;;;;4955571;29;20130;-81
2021/01/15 07:49:21;;;;;;;15.30;10.27;;;1.20;91.90;;;;;;4954424;28;20047;-82
2021/01/15 07:52:08;;;;;;;17.55;11.48;;;1.20;91.90;;;;;;4954871;28;20043;-82
2021/01/15 07:55:04;;;;;;;15.77;11.52;;;1.20;92.00;;;;;;4954704;29;20447;-82
2021/01/15 07:57:32;;;;;;;16.17;11.50;;;1.20;92.00;;;;;;4955126;28;20111;-81
2021/01/15 08:00:24;;;;;;;17.60;11.10;;;1.20;92.00;;;;;;4955623;28;20055;-81
2021/01/15 08:02:59;;;;;;;14.48;10.73;;;1.20;92.10;;;;;;4952934;29;20050;-82
2021/01/15 08:05:25;;;;;;;16.13;11.13;;;1.10;92.10;;;;;;4953099;28;20122;-82
2021/01/15 08:07:50;;;;;;;17.17;10.50;;;1.10;92.10;;;;;;4954702;29;20479;-80
2021/01/15 08:10:25;;;;;;;13.88;9.63;;;1.10;92.10;;;;;;4952377;29;20054;-81
2021/01/15 08:12:51;;;;;;;14.10;9.50;;;1.10;92.30;;;;;;4956238;28;20047;-81
2021/01/15 08:15:28;;;;;;;12.40;9.13;;;1.10;92.20;;;;;;4958160;29;20122;-82
2021/01/15 08:17:54;;;;;;;18.92;9.35;;;1.10;92.20;;;;;;4965660;28;20047;-81
2021/01/15 08:20:21;;;;;;;15.10;10.10;;;1.20;92.20;;;;;;4977040;28;20046;-83
2021/01/15 08:22:51;;;;;;;13.23;9.13;;;1.20;92.30;;;;;;4978834;28;20074;-82
2021/01/15 08:25:28;;;;;;;15.98;9.88;;;1.30;92.30;;;;;;4982985;28;20086;-82
2021/01/15 08:27:55;;;;;;;13.63;9.45;;;1.30;92.30;;;;;;4967612;28;20086;-82
2021/01/15 08:30:22;;;;;;;15.77;11.10;;;1.30;92.40;;;;;;4971213;28;20039;-82
2021/01/15 08:32:48;;;;;;;18.83;11.23;;;1.20;92.30;;;;;;4958048;29;20538;-82
2021/01/15 08:35:25;;;;;;;16.80;10.40;;;1.30;92.40;;;;;;4956130;28;20476;-82
2021/01/15 08:37:57;;;;;;;14.02;9.95;;;1.30;92.50;;;;;;4955985;29;20373;-82
2021/01/15 08:40:31;;;;;;;14.65;10.20;;;1.30;92.50;;;;;;4954547;29;20047;-82
2021/01/15 08:42:58;;;;;;;13.18;9.52;;;1.30;92.50;;;;;;4956657;28;20074;-83
2021/01/15 08:45:28;;;;;;;14.18;9.70;;;1.20;92.60;;;;;;4954585;29;20047;-83
2021/01/15 08:47:56;;;;;;;12.55;9.45;;;1.30;92.50;;;;;;4956579;28;20126;-82
2021/01/15 08:50:26;;;;;;;15.00;10.43;;;1.30;92.80;;;;;;4957197;28;20073;-83
2021/01/15 08:52:52;;;;;;;12.23;9.30;;;1.30;92.50;;;;;;4955659;28;20497;-82
2021/01/15 08:55:19;;;;;;;13.57;9.50;;;1.40;92.50;;;;;;4972583;28;20122;-81
2021/01/15 08:57:48;;;;;;;13.50;9.25;;;1.40;92.50;;;;;;4940528;29;20043;-82
2021/01/15 09:00:18;;;;;;;13.75;9.57;;;1.40;92.70;;;;;;4958576;28;20130;-81
2021/01/15 09:02:45;;;;;;;11.98;8.88;;;1.50;92.50;;;;;;4940598;29;20050;-82
2021/01/15 09:05:14;;;;;;;14.10;10.00;;;1.50;92.50;;;;;;4945193;29;20076;-80
2021/01/15 09:07:43;;;;;;;13.40;8.85;;;1.50;92.50;;;;;;4945655;29;20043;-82
2021/01/15 09:10:11;;;;;;;12.45;9.18;;;1.50;92.50;;;;;;4961015;29;20043;-80
2021/01/15 09:12:46;;;;;;;12.05;8.80;;;1.50;92.40;;;;;;4981364;28;20051;-83
2021/01/15 09:15:25;;;;;;;12.63;9.48;;;1.50;92.40;;;;;;4966180;29;20154;-81
2021/01/15 09:17:51;;;;;;;13.07;9.65;;;1.50;92.40;;;;;;4971873;28;20043;-82
2021/01/15 09:20:18;;;;;;;15.32;10.13;;;1.60;92.40;;;;;;4970496;29;20051;-82
2021/01/15 09:22:44;;;;;;;14.35;8.93;;;1.50;92.40;;;;;;4968620;29;20166;-81
2021/01/15 09:25:12;;;;;;;11.48;8.80;;;1.50;92.50;;;;;;4969868;28;20051;-80
2021/01/15 09:27:38;;;;;;;14.02;9.85;;;1.50;92.50;;;;;;4971083;29;20039;-80
2021/01/15 09:30:04;;;;;;;15.30;9.85;;;1.40;92.60;;;;;;4970818;29;20047;-81
2021/01/15 09:32:30;;;;;;;13.13;8.75;;;1.50;92.60;;;;;;4970779;28;20043;-82
2021/01/15 09:34:56;;;;;;;13.40;8.50;;;1.50;92.60;;;;;;4972167;29;20436;-82
2021/01/15 09:37:22;;;;;;;12.15;8.02;;;1.50;92.50;;;;;;4970893;29;20051;-82
2021/01/15 09:39:48;;;;;;;13.63;7.90;;;1.50;92.60;;;;;;4959669;29;20035;-79
2021/01/15 09:42:14;;;;;;;11.95;8.52;;;1.50;92.60;;;;;;4954554;29;20058;-79
2021/01/15 09:44:40;;;;;;;14.25;8.38;;;1.50;92.50;;;;;;4954757;29;20035;-80
2021/01/15 09:47:07;;;;;;;12.23;8.73;;;1.50;92.60;;;;;;4954811;28;20046;-80
2021/01/15 09:49:34;;;;;;;13.05;8.55;;;1.60;92.60;;;;;;4952888;29;20684;-80
2021/01/15 09:52:01;;;;;;;11.77;8.32;;;1.60;92.60;;;;;;4955147;28;20043;-83
2021/01/15 09:54:29;;;;;;;13.90;8.75;;;1.60;92.60;;;;;;4954209;28;20535;-81
2021/01/15 09:56:55;;;;;;;11.93;8.55;;;1.60;92.60;;;;;;4954921;28;20050;-81
2021/01/15 09:59:20;;;;;;;12.70;8.43;;;1.70;92.60;;;;;;4953942;28;20054;-78
2021/01/15 10:01:47;;;;;;;12.57;8.73;;;1.60;92.60;;;;;;4953785;29;20058;-78
2021/01/15 10:04:14;;;;;;;12.95;9.32;;;1.60;92.60;;;;;;4954237;28;20487;-78
2021/01/15 10:06:45;;;;;;;11.65;8.27;;;1.70;92.60;;;;;;4953218;29;20098;-78
2021/01/15 10:09:12;;;;;;;12.32;8.60;;;1.70;92.50;;;;;;4969413;28;20050;-79
2021/01/15 10:11:40;;;;;;;13.13;9.30;;;1.70;92.60;;;;;;4953858;28;20488;-79
2021/01/15 10:14:09;;;;;;;12.73;9.02;;;1.70;92.50;;;;;;4954792;28;20091;-79
2021/01/15 10:16:38;;;;;;;12.70;8.63;;;1.70;92.50;;;;;;4955409;28;20046;-81
2021/01/15 10:19:05;;;;;;;12.15;8.70;;;1.70;92.40;;;;;;4968463;28;20549;-81
2021/01/15 10:21:32;;;;;;;13.70;9.02;;;1.70;92.40;;;;;;4973129;28;20055;-81
2021/01/15 10:23:59;;;;;;;13.45;8.77;;;1.80;92.40;;;;;;4942312;28;20044;-81
2021/01/15 10:26:26;;;;;;;12.77;8.57;;;1.80;92.50;;;;;;4969103;28;20102;-81
2021/01/15 10:28:57;;;;;;;13.85;8.40;;;1.80;92.50;;;;;;4948367;29;20039;-81
2021/01/15 10:31:24;;;;;;;12.82;8.63;;;1.80;92.50;;;;;;4951306;29;20047;-81
2021/01/15 10:33:50;;;;;;;12.07;8.25;;;1.80;92.50;;;;;;4952853;29;20071;-81
2021/01/15 10:36:16;;;;;;;11.73;8.32;;;1.80;92.40;;;;;;4941505;28;20066;-80
2021/01/15 10:38:42;;;;;;;10.98;7.65;;;1.90;92.40;;;;;;4953640;28;20051;-81
2021/01/15 10:41:09;;;;;;;9.73;7.55;;;1.90;92.40;;;;;;4953581;28;20049;-83
2021/01/15 10:43:34;;;;;;;10.82;7.90;;;1.90;92.30;;;;;;4951875;29;20062;-83
2021/01/15 10:46:00;;;;;;;11.50;7.93;;;1.90;92.10;;;;;;4953713;29;20047;-83
2021/01/15 10:48:26;;;;;;;12.02;8.20;;;1.90;92.10;;;;;;4953065;29;20075;-83
2021/01/15 10:50:52;;;;;;;11.77;8.70;;;2.00;92.10;;;;;;4953480;29;20035;-82
2021/01/15 10:53:18;;;;;;;12.48;8.90;;;2.00;92.00;;;;;;4953099;28;20129;-82
2021/01/15 10:55:46;;;;;;;11.55;8.30;;;2.00;92.00;;;;;;4953811;28;20040;-83
2021/01/15 10:58:12;;;;;;;15.07;8.50;;;2.00;91.90;;;;;;4968619;28;20551;-81
2021/01/15 11:00:38;;;;;;;14.02;8.38;;;2.00;91.80;;;;;;4953067;29;20106;-83
2021/01/15 11:03:03;;;;;;;10.68;8.48;;;2.10;91.70;;;;;;4952687;29;20055;-83
2021/01/15 11:05:29;;;;;;;16.27;9.00;;;2.10;91.50;;;;;;4967145;28;20039;-83
2021/01/15 11:07:55;;;;;;;14.30;8.35;;;2.20;91.30;;;;;;4952622;29;20066;-82
2021/01/15 11:10:21;;;;;;;10.90;8.20;;;2.20;91.30;;;;;;4952566;29;20043;-81
2021/01/15 11:12:47;;;;;;;10.57;7.82;;;2.20;91.10;;;;;;4968063;28;20059;-83
2021/01/15 11:15:13;;;;;;;13.45;8.23;;;2.20;90.70;;;;;;4968360;28;20085;-83
2021/01/15 11:17:39;;;;;;;9.65;7.07;;;2.20;90.30;;;;;;4953846;28;20039;-83
2021/01/15 11:20:07;;;;;;;13.63;8.02;;;2.20;90.30;;;;;;4972861;28;20042;-83
2021/01/15 11:22:37;;;;;;;9.80;7.70;;;2.20;90.20;;;;;;4970938;28;20054;-83
2021/01/15 11:25:06;;;;;;;10.77;7.93;;;2.20;90.10;;;;;;4972427;28;20130;-83
2021/01/15 11:27:33;;;;;;;10.50;7.63;;;2.20;89.90;;;;;;4970645;28;20043;-82
2021/01/15 11:30:00;;;;;;;10.65;7.38;;;2.20;90.10;;;;;;4969501;28;20492;-83
2021/01/15 11:32:25;;;;;;;11.00;8.05;;;2.30;90.20;;;;;;4932384;29;20078;-82
2021/01/15 11:34:53;;;;;;;11.10;8.02;;;2.30;89.70;;;;;;4934306;29;20084;-83
2021/01/15 11:37:20;;;;;;;10.70;8.25;;;2.30;89.40;;;;;;4948517;29;20059;-82
2021/01/15 11:39:46;;;;;;;12.32;7.85;;;2.30;88.90;;;;;;4948449;29;20403;-83
2021/01/15 11:42:12;;;;;;;11.68;8.40;;;2.40;88.80;;;;;;4934283;29;20036;-85
2021/01/15 11:44:38;;;;;;;12.35;8.07;;;2.40;88.90;;;;;;4967131;28;20035;-82
2021/01/15 11:47:04;;;;;;;11.85;7.97;;;2.40;88.60;;;;;;4954360;28;20051;-82
2021/01/15 11:49:30;;;;;;;10.88;7.75;;;2.40;88.30;;;;;;4956486;28;20054;-80
2021/01/15 11:51:56;;;;;;;12.43;8.13;;;2.40;88.40;;;;;;4951468;28;20051;-87
2021/01/15 11:54:22;;;;;;;9.30;7.38;;;2.40;88.40;;;;;;4971001;28;20051;-82
2021/01/15 11:56:48;;;;;;;10.20;8.13;;;2.50;88.10;;;;;;4955687;29;20051;-84
2021/01/15 11:59:14;;;;;;;13.30;8.10;;;2.50;87.50;;;;;;4956681;29;20063;-84
2021/01/15 12:01:40;;;;;;;12.95;8.02;;;2.50;87.30;;;;;;4955683;29;20053;-84
2021/01/15 12:04:06;;;;;;;12.38;8.20;;;2.60;87.60;;;;;;4956695;29;20070;-84
2021/01/15 12:06:31;;;;;;;11.57;8.30;;;2.60;86.90;;;;;;4956082;29;20472;-85
2021/01/15 12:08:58;;;;;;;12.05;8.05;;;2.60;87.20;;;;;;4955627;29;20079;-84
2021/01/15 12:11:24;;;;;;;11.98;8.60;;;2.70;87.20;;;;;;4956048;28;20043;-83
2021/01/15 12:13:50;;;;;;;13.73;8.15;;;2.70;87.30;;;;;;4955332;29;20134;-85
2021/01/15 12:16:16;;;;;;;11.45;7.75;;;2.70;86.60;;;;;;4956551;29;20102;-82
2021/01/15 12:18:42;;;;;;;11.85;8.05;;;2.70;86.20;;;;;;4966774;28;20117;-86
2021/01/15 12:21:16;;;;;;;12.00;8.15;;;2.70;86.30;;;;;;4974325;28;20089;-83
2021/01/15 12:23:42;;;;;;;10.10;6.95;;;2.70;85.20;;;;;;4958468;28;20325;-82
2021/01/15 12:26:08;;;;;;;13.05;7.95;;;2.80;84.40;;;;;;4959209;28;20046;-83
2021/01/15 12:28:34;;;;;;;10.95;7.85;;;2.80;83.40;;;;;;4955504;29;20043;-83
2021/01/15 12:31:00;;;;;;;12.65;8.50;;;2.80;84.00;;;;;;4971311;28;20054;-83
2021/01/15 12:33:25;;;;;;;11.52;7.97;;;2.80;84.30;;;;;;4954988;29;20051;-82
2021/01/15 12:35:51;;;;;;;13.77;7.88;;;2.80;84.20;;;;;;4954728;29;20055;-83
2021/01/15 12:38:20;;;;;;;17.40;8.05;;;2.90;84.20;;;;;;4956598;29;20166;-83
2021/01/15 12:40:46;;;;;;;11.45;7.93;;;2.90;84.20;;;;;;4955671;28;20043;-82
2021/01/15 12:43:13;;;;;;;12.73;8.00;;;2.90;84.20;;;;;;4966371;28;20119;-82
2021/01/15 12:45:44;;;;;;;11.30;8.07;;;2.90;84.50;;;;;;4969704;28;20230;-83
2021/01/15 12:48:12;;;;;;;12.50;8.05;;;3.00;84.40;;;;;;4947565;29;20071;-83
2021/01/15 12:50:38;;;;;;;9.07;6.82;;;3.10;83.90;;;;;;4936065;29;20538;-83
2021/01/15 12:53:05;;;;;;;10.43;7.50;;;3.10;82.60;;;;;;4951748;29;20048;-83
2021/01/15 12:55:31;;;;;;;9.18;7.00;;;3.00;82.20;;;;;;4945190;29;20106;-82